Time;durP1;ratioP1;P1;durP2;ratioP2;P2;SDS_P1;SDS_P2;PMS_P1;PMS_P2;Temp;Humidity;BMP_temperature;BMP_pressure;BME280_temperature;BME280_humidity;BME280_pressure;Samples;Min_cycle;Max_cycle;Signal;HPM_P1;HPM_P2
2022/04/30 00:00:38;;;;;;;14.15;6.72;;;;;;;;;;5104821;28;20373;-75
2022/04/30 00:03:04;;;;;;;14.15;5.90;;;;;;;;;;5110545;28;20043;-74
2022/04/30 00:05:32;;;;;;;12.27;5.93;;;;;;;;;;5109020;28;20289;-74
2022/04/30 00:07:58;;;;;;;10.13;6.22;;;;;;;;;;5090209;28;20038;-74
2022/04/30 00:10:24;;;;;;;17.75;8.30;;;;;;;;;;5093002;28;20035;-74
2022/04/30 00:12:50;;;;;;;12.77;6.78;;;;;;;;;;5103099;28;20021;-74
2022/04/30 00:15:16;;;;;;;18.63;7.53;;;;;;;;;;5104963;28;20032;-74
2022/04/30 00:17:43;;;;;;;12.20;5.78;;;;;;;;;;5111441;28;20119;-75
2022/04/30 00:20:09;;;;;;;15.00;6.13;;;;;;;;;;5115257;28;20031;-74
2022/04/30 00:22:35;;;;;;;18.67;7.05;;;;;;;;;;5101511;28;20047;-74
2022/04/30 00:25:01;;;;;;;9.77;6.47;;;;;;;;;;5103162;28;20019;-74
2022/04/30 00:27:28;;;;;;;11.75;7.45;;;;;;;;;;5112329;27;20534;-74
2022/04/30 00:29:54;;;;;;;10.70;6.38;;;;;;;;;;5108174;27;20032;-74
2022/04/30 00:32:21;;;;;;;11.73;6.07;;;;;;;;;;5087127;28;20111;-75
2022/04/30 00:34:48;;;;;;;8.68;6.38;;;;;;;;;;5115638;28;20044;-76
2022/04/30 00:37:14;;;;;;;9.35;5.20;;;;;;;;;;5094360;28;20038;-75
2022/04/30 00:39:40;;;;;;;11.80;6.10;;;;;;;;;;5105163;28;20102;-75
2022/04/30 00:42:10;;;;;;;11.68;7.13;;;;;;;;;;5095676;28;20032;-75
2022/04/30 00:44:36;;;;;;;13.95;6.85;;;;;;;;;;5112351;28;20035;-75
2022/04/30 00:47:02;;;;;;;13.75;7.10;;;;;;;;;;5109551;28;20089;-75
2022/04/30 00:49:28;;;;;;;13.65;6.18;;;;;;;;;;5113477;28;20047;-75
2022/04/30 00:51:56;;;;;;;14.18;6.25;;;;;;;;;;5108622;28;20032;-75
2022/04/30 00:54:23;;;;;;;12.73;6.45;;;;;;;;;;5135245;27;20035;-75
2022/04/30 00:56:53;;;;;;;11.30;7.18;;;;;;;;;;5089249;27;20035;-75
2022/04/30 00:59:20;;;;;;;14.80;6.65;;;;;;;;;;5095263;28;20460;-75
2022/04/30 01:01:46;;;;;;;14.55;6.10;;;;;;;;;;5091183;28;20131;-75
2022/04/30 01:04:13;;;;;;;16.10;7.00;;;;;;;;;;5101607;28;20486;-75
2022/04/30 01:07:00;;;;;;;12.13;6.18;;;;;;;;;;5113417;27;20379;-76
2022/04/30 01:09:28;;;;;;;14.63;6.55;;;;;;;;;;5112245;28;20467;-75
2022/04/30 01:11:59;;;;;;;13.05;6.10;;;;;;;;;;5111750;28;20020;-75
2022/04/30 01:14:31;;;;;;;11.32;6.47;;;;;;;;;;5101158;28;20036;-76
2022/04/30 01:16:57;;;;;;;15.63;7.53;;;;;;;;;;5112488;28;20099;-76
2022/04/30 01:19:24;;;;;;;11.02;6.50;;;;;;;;;;5112382;28;20184;-76
2022/04/30 01:21:51;;;;;;;22.35;6.03;;;;;;;;;;5113137;28;20479;-76
2022/04/30 01:24:27;;;;;;;9.73;6.35;;;;;;;;;;5097211;27;20377;-76
2022/04/30 01:26:54;;;;;;;10.50;5.68;;;;;;;;;;5107713;28;20115;-76
2022/04/30 01:29:21;;;;;;;12.60;6.35;;;;;;;;;;5109006;28;20044;-76
2022/04/30 01:37:23;;;;;;;11.82;6.82;;;;;;;;;;5089365;28;20100;-75
2022/04/30 01:39:53;;;;;;;13.90;5.80;;;;;;;;;;5107797;28;20110;-75
2022/04/30 01:42:20;;;;;;;15.63;6.75;;;;;;;;;;5082072;28;20248;-74
2022/04/30 01:44:47;;;;;;;12.75;6.68;;;;;;;;;;5107423;28;20149;-74
2022/04/30 01:47:14;;;;;;;15.88;6.30;;;;;;;;;;5112992;28;20024;-74
2022/04/30 01:49:41;;;;;;;11.10;5.85;;;;;;;;;;5092637;28;20039;-75
2022/04/30 01:52:07;;;;;;;10.25;5.97;;;;;;;;;;5109068;28;20023;-75
2022/04/30 01:54:34;;;;;;;12.68;6.72;;;;;;;;;;5107364;28;20035;-74
2022/04/30 01:57:00;;;;;;;7.88;5.72;;;;;;;;;;5106789;28;20495;-75
2022/04/30 01:59:26;;;;;;;14.43;6.40;;;;;;;;;;5104143;27;20040;-75
2022/04/30 02:01:52;;;;;;;11.13;5.95;;;;;;;;;;5105955;27;20057;-75
2022/04/30 02:04:18;;;;;;;11.15;5.82;;;;;;;;;;5113541;27;20028;-75
2022/04/30 02:06:45;;;;;;;13.73;6.47;;;;;;;;;;5079870;28;20095;-74
2022/04/30 02:09:11;;;;;;;11.45;5.97;;;;;;;;;;5111615;28;20036;-74
2022/04/30 02:11:38;;;;;;;17.80;5.78;;;;;;;;;;5108023;28;20475;-74
2022/04/30 02:14:05;;;;;;;12.88;6.05;;;;;;;;;;5109941;28;20028;-74
2022/04/30 02:16:32;;;;;;;6.95;6.05;;;;;;;;;;5108307;28;20036;-74
2022/04/30 02:18:58;;;;;;;11.68;5.82;;;;;;;;;;5110665;28;20024;-74
2022/04/30 02:21:25;;;;;;;10.98;6.38;;;;;;;;;;5102240;28;20089;-74
2022/04/30 02:23:57;;;;;;;8.38;5.40;;;;;;;;;;5107271;28;20417;-74
2022/04/30 02:26:25;;;;;;;11.88;6.10;;;;;;;;;;5101854;27;20455;-74
2022/04/30 02:28:51;;;;;;;8.57;5.50;;;;;;;;;;5127706;27;20028;-75
2022/04/30 02:31:23;;;;;;;8.43;5.53;;;;;;;;;;5107099;28;20039;-74
2022/04/30 02:33:49;;;;;;;7.85;5.80;;;;;;;;;;5076765;28;20032;-73
2022/04/30 02:36:15;;;;;;;11.13;6.20;;;;;;;;;;5087271;27;20032;-74
2022/04/30 02:38:42;;;;;;;6.38;4.70;;;;;;;;;;5124018;27;20481;-73
2022/04/30 02:41:08;;;;;;;12.25;5.70;;;;;;;;;;5089945;28;20043;-74
2022/04/30 02:43:34;;;;;;;13.63;5.93;;;;;;;;;;5109040;28;20035;-74
2022/04/30 02:46:00;;;;;;;12.63;4.88;;;;;;;;;;5090872;28;20387;-74
2022/04/30 02:48:26;;;;;;;14.70;6.05;;;;;;;;;;5079576;28;20024;-74
2022/04/30 02:50:58;;;;;;;12.55;5.65;;;;;;;;;;5111095;28;20026;-74
2022/04/30 02:53:24;;;;;;;9.02;5.15;;;;;;;;;;5106013;28;20106;-74
2022/04/30 02:55:50;;;;;;;10.73;5.40;;;;;;;;;;5087873;28;20106;-74
2022/04/30 03:01:00;;;;;;;10.95;5.53;;;;;;;;;;5109318;28;20066;-74
2022/04/30 03:03:29;;;;;;;9.10;5.22;;;;;;;;;;5110120;28;20039;-75
2022/04/30 03:05:56;;;;;;;10.75;6.05;;;;;;;;;;5105776;28;20348;-75
2022/04/30 03:08:23;;;;;;;6.72;4.47;;;;;;;;;;5112816;28;20095;-74
2022/04/30 03:10:50;;;;;;;9.50;5.13;;;;;;;;;;5090566;28;20031;-74
2022/04/30 03:13:20;;;;;;;7.80;5.10;;;;;;;;;;5109810;27;20497;-74
2022/04/30 03:15:48;;;;;;;8.45;5.45;;;;;;;;;;5107674;28;20103;-74
2022/04/30 03:23:47;;;;;;;6.53;5.07;;;;;;;;;;5109412;28;20035;-74
2022/04/30 03:26:15;;;;;;;10.13;5.72;;;;;;;;;;5109169;28;20055;-74
2022/04/30 03:28:42;;;;;;;9.52;5.80;;;;;;;;;;5111724;28;20094;-74
2022/04/30 03:31:12;;;;;;;10.15;5.93;;;;;;;;;;5081025;28;20042;-74
2022/04/30 03:33:38;;;;;;;10.48;6.53;;;;;;;;;;5091535;28;20023;-74
2022/04/30 03:36:04;;;;;;;11.70;6.10;;;;;;;;;;5104264;28;20036;-74
2022/04/30 03:38:30;;;;;;;9.57;5.88;;;;;;;;;;5104557;27;20039;-74
2022/04/30 03:40:57;;;;;;;10.88;6.05;;;;;;;;;;5107958;27;20042;-74
2022/04/30 03:43:23;;;;;;;9.98;6.43;;;;;;;;;;5092825;28;20027;-74
2022/04/30 03:45:49;;;;;;;8.02;5.35;;;;;;;;;;5081843;28;20774;-75
2022/04/30 03:48:15;;;;;;;10.13;5.88;;;;;;;;;;5088590;28;20112;-75
2022/04/30 03:50:42;;;;;;;8.55;5.70;;;;;;;;;;5110209;28;20032;-75
2022/04/30 03:53:08;;;;;;;9.30;5.85;;;;;;;;;;5111484;28;20020;-75
2022/04/30 03:55:34;;;;;;;8.43;6.18;;;;;;;;;;5085653;28;20035;-74
2022/04/30 03:58:00;;;;;;;14.85;6.22;;;;;;;;;;5108193;28;20047;-74
2022/04/30 04:00:26;;;;;;;10.25;6.25;;;;;;;;;;5108806;28;20134;-74
2022/04/30 04:02:57;;;;;;;10.57;6.03;;;;;;;;;;5107610;28;20104;-75
2022/04/30 04:05:24;;;;;;;10.50;5.28;;;;;;;;;;5109311;28;20023;-74
2022/04/30 04:07:50;;;;;;;9.90;6.40;;;;;;;;;;5110042;28;20043;-74
2022/04/30 04:10:17;;;;;;;15.27;6.80;;;;;;;;;;5112381;28;20063;-74
2022/04/30 04:12:43;;;;;;;11.95;6.18;;;;;;;;;;5109035;28;20107;-73
2022/04/30 04:17:55;;;;;;;9.63;5.82;;;;;;;;;;5106738;28;20084;-74
2022/04/30 04:20:25;;;;;;;13.52;6.57;;;;;;;;;;5109638;28;20368;-73
2022/04/30 04:22:52;;;;;;;9.20;5.65;;;;;;;;;;5108818;28;20020;-74
2022/04/30 04:28:02;;;;;;;9.10;5.30;;;;;;;;;;5107615;28;20058;-74
2022/04/30 04:30:29;;;;;;;9.73;5.53;;;;;;;;;;5092000;28;20035;-71
2022/04/30 04:32:56;;;;;;;16.73;11.77;;;;;;;;;;5095311;28;20506;-72
2022/04/30 04:35:22;;;;;;;10.65;5.38;;;;;;;;;;5095259;28;20032;-73
2022/04/30 04:37:48;;;;;;;11.13;6.85;;;;;;;;;;5091266;28;20032;-73
2022/04/30 04:40:15;;;;;;;8.98;4.95;;;;;;;;;;5105558;28;20023;-72
2022/04/30 04:42:42;;;;;;;10.35;5.65;;;;;;;;;;5106485;28;20035;-73
2022/04/30 04:45:08;;;;;;;10.98;5.75;;;;;;;;;;5110184;28;20059;-73
2022/04/30 04:47:35;;;;;;;12.85;5.60;;;;;;;;;;5108917;28;20464;-73
2022/04/30 04:50:02;;;;;;;13.07;6.10;;;;;;;;;;5111259;28;20111;-73
2022/04/30 04:52:28;;;;;;;10.93;6.53;;;;;;;;;;5109748;28;20097;-73
2022/04/30 04:54:54;;;;;;;8.07;6.00;;;;;;;;;;5107981;28;20039;-73
2022/04/30 04:57:20;;;;;;;12.35;9.23;;;;;;;;;;5106213;28;20028;-74
2022/04/30 04:59:46;;;;;;;7.55;6.05;;;;;;;;;;5087188;28;20134;-75
2022/04/30 05:02:12;;;;;;;9.90;6.05;;;;;;;;;;5106455;28;20179;-75
2022/04/30 05:04:38;;;;;;;8.93;5.95;;;;;;;;;;5086225;28;20030;-73
2022/04/30 05:07:04;;;;;;;11.95;6.97;;;;;;;;;;5112673;28;20098;-73
2022/04/30 05:09:31;;;;;;;9.70;6.35;;;;;;;;;;5113648;27;20467;-73
2022/04/30 05:12:01;;;;;;;9.70;6.40;;;;;;;;;;5111403;28;20047;-73
2022/04/30 05:14:28;;;;;;;11.70;6.70;;;;;;;;;;5114525;28;20031;-73
2022/04/30 05:16:54;;;;;;;12.25;7.18;;;;;;;;;;5110170;28;20104;-73
2022/04/30 05:19:20;;;;;;;12.02;7.75;;;;;;;;;;5095235;28;20023;-73
2022/04/30 05:21:46;;;;;;;11.68;6.57;;;;;;;;;;5112191;27;20375;-72
2022/04/30 05:24:12;;;;;;;9.93;6.43;;;;;;;;;;5111249;27;20492;-73
2022/04/30 05:26:38;;;;;;;11.05;6.13;;;;;;;;;;5110961;27;20043;-73
2022/04/30 05:29:04;;;;;;;8.10;5.90;;;;;;;;;;5090669;28;20123;-73
2022/04/30 05:31:30;;;;;;;8.55;6.53;;;;;;;;;;5112439;28;20036;-72
2022/04/30 05:33:56;;;;;;;12.63;6.63;;;;;;;;;;5112843;28;20055;-73
2022/04/30 05:36:22;;;;;;;7.80;6.35;;;;;;;;;;5093906;28;20548;-73
2022/04/30 05:38:48;;;;;;;7.95;6.93;;;;;;;;;;5101841;28;20039;-74
2022/04/30 05:41:14;;;;;;;12.48;8.23;;;;;;;;;;5113450;28;20071;-72
2022/04/30 05:43:40;;;;;;;12.07;6.57;;;;;;;;;;5093167;28;20081;-73
2022/04/30 05:46:07;;;;;;;9.65;7.60;;;;;;;;;;5112199;28;20035;-73
2022/04/30 05:48:34;;;;;;;9.98;7.47;;;;;;;;;;5118710;27;20029;-73
2022/04/30 05:51:00;;;;;;;10.25;6.57;;;;;;;;;;5112883;28;20042;-73
2022/04/30 05:53:26;;;;;;;10.52;7.40;;;;;;;;;;5111358;28;20069;-73
2022/04/30 05:55:52;;;;;;;14.50;7.63;;;;;;;;;;5109734;28;20028;-72
2022/04/30 05:58:18;;;;;;;10.70;6.72;;;;;;;;;;5088834;28;20027;-73
2022/04/30 06:00:44;;;;;;;7.25;6.35;;;;;;;;;;5104724;28;20051;-73
2022/04/30 06:03:10;;;;;;;12.23;7.25;;;;;;;;;;5100228;28;20040;-73
2022/04/30 06:05:37;;;;;;;13.15;7.32;;;;;;;;;;5099328;28;20049;-74
2022/04/30 06:08:04;;;;;;;12.63;6.72;;;;;;;;;;5102980;28;20032;-74
2022/04/30 06:10:30;;;;;;;13.25;7.70;;;;;;;;;;5091950;28;20040;-73
2022/04/30 06:12:57;;;;;;;10.73;6.97;;;;;;;;;;5104283;28;20135;-74
2022/04/30 06:15:23;;;;;;;11.73;7.70;;;;;;;;;;5072425;27;20562;-74
2022/04/30 06:17:49;;;;;;;8.68;6.78;;;;;;;;;;5092381;28;20114;-75
2022/04/30 06:20:15;;;;;;;8.18;6.45;;;;;;;;;;5109910;28;20032;-74
2022/04/30 06:22:41;;;;;;;10.63;6.32;;;;;;;;;;5090848;28;20028;-74
2022/04/30 06:25:07;;;;;;;13.55;6.63;;;;;;;;;;5110356;28;20036;-74
2022/04/30 06:27:33;;;;;;;11.02;6.70;;;;;;;;;;5111638;28;20095;-74
2022/04/30 06:30:00;;;;;;;9.60;6.43;;;;;;;;;;5110490;28;20039;-75
2022/04/30 06:32:26;;;;;;;11.00;5.97;;;;;;;;;;5075918;28;20044;-74
2022/04/30 06:34:52;;;;;;;20.33;8.32;;;;;;;;;;5111912;27;20059;-75
2022/04/30 06:37:18;;;;;;;13.90;7.13;;;;;;;;;;5107853;28;20027;-74
2022/04/30 06:39:45;;;;;;;10.00;6.30;;;;;;;;;;5113203;28;20042;-74
2022/04/30 06:42:11;;;;;;;9.60;6.13;;;;;;;;;;5107676;28;20032;-74
2022/04/30 06:44:37;;;;;;;13.65;5.95;;;;;;;;;;5123487;27;20497;-74
2022/04/30 06:47:03;;;;;;;8.82;6.32;;;;;;;;;;5111847;27;20031;-74
2022/04/30 06:49:29;;;;;;;8.65;5.70;;;;;;;;;;5111856;28;20509;-75
2022/04/30 06:51:55;;;;;;;12.73;6.95;;;;;;;;;;5097499;27;20044;-75
2022/04/30 06:57:07;;;;;;;14.25;7.90;;;;;;;;;;5103985;28;20038;-74
2022/04/30 06:59:37;;;;;;;13.50;6.65;;;;;;;;;;5111366;28;20035;-74
2022/04/30 07:02:07;;;;;;;11.32;6.93;;;;;;;;;;5108826;28;20209;-75
2022/04/30 07:04:33;;;;;;;14.63;7.25;;;;;;;;;;5110001;28;20023;-74
2022/04/30 07:07:00;;;;;;;10.52;6.55;;;;;;;;;;5105155;28;20055;-75
2022/04/30 07:09:28;;;;;;;10.77;6.72;;;;;;;;;;5111650;28;20491;-75
2022/04/30 07:11:54;;;;;;;8.85;5.82;;;;;;;;;;5104865;28;20027;-76
2022/04/30 07:14:21;;;;;;;7.85;5.85;;;;;;;;;;5093216;28;20031;-76
2022/04/30 07:16:47;;;;;;;10.52;5.65;;;;;;;;;;5089528;27;20436;-75
2022/04/30 07:19:13;;;;;;;8.85;5.93;;;;;;;;;;5115157;27;20019;-76
2022/04/30 07:21:39;;;;;;;11.73;5.18;;;;;;;;;;5099029;28;20031;-76
2022/04/30 07:24:05;;;;;;;11.70;5.30;;;;;;;;;;5111049;28;20028;-76
2022/04/30 07:26:31;;;;;;;9.55;5.57;;;;;;;;;;5111125;28;20038;-76
2022/04/30 07:28:57;;;;;;;10.45;5.38;;;;;;;;;;5106301;28;20102;-76
2022/04/30 07:31:23;;;;;;;9.85;5.80;;;;;;;;;;5108784;27;20028;-76
2022/04/30 07:33:51;;;;;;;9.73;4.97;;;;;;;;;;5105889;28;20510;-76
2022/04/30 07:36:17;;;;;;;9.43;4.93;;;;;;;;;;5078054;28;20030;-76
2022/04/30 07:38:43;;;;;;;8.13;4.85;;;;;;;;;;5101070;28;20031;-75
2022/04/30 07:41:09;;;;;;;13.00;4.38;;;;;;;;;;5088882;28;20467;-75
2022/04/30 07:43:35;;;;;;;8.55;4.40;;;;;;;;;;5100731;28;20055;-75
2022/04/30 07:46:01;;;;;;;11.65;5.40;;;;;;;;;;5101999;28;20536;-75
2022/04/30 07:48:27;;;;;;;7.70;4.40;;;;;;;;;;5105724;28;20039;-75
2022/04/30 07:50:57;;;;;;;9.60;4.35;;;;;;;;;;5106967;28;20027;-76
2022/04/30 07:53:24;;;;;;;8.35;5.10;;;;;;;;;;5110338;28;20067;-76
2022/04/30 07:55:50;;;;;;;9.73;4.93;;;;;;;;;;5110963;28;20463;-76
2022/04/30 07:58:16;;;;;;;7.93;4.65;;;;;;;;;;5108057;28;20039;-75
2022/04/30 08:00:42;;;;;;;8.35;4.53;;;;;;;;;;5077108;28;20511;-76
2022/04/30 08:03:08;;;;;;;8.80;4.43;;;;;;;;;;5090799;28;20036;-75
2022/04/30 08:05:34;;;;;;;9.02;5.57;;;;;;;;;;5073998;28;20478;-75
2022/04/30 08:08:01;;;;;;;8.75;5.30;;;;;;;;;;5080017;28;20039;-75
2022/04/30 08:10:27;;;;;;;9.88;5.70;;;;;;;;;;5071674;28;20032;-75
2022/04/30 08:12:56;;;;;;;9.38;5.20;;;;;;;;;;5075945;28;20032;-76
2022/04/30 08:15:23;;;;;;;10.20;5.97;;;;;;;;;;5089504;28;20034;-75
2022/04/30 08:17:49;;;;;;;11.30;6.70;;;;;;;;;;5070496;28;20391;-75
2022/04/30 08:20:15;;;;;;;9.32;5.53;;;;;;;;;;5082583;28;20036;-75
2022/04/30 08:22:42;;;;;;;9.50;5.38;;;;;;;;;;5084023;28;20056;-75
2022/04/30 08:25:08;;;;;;;7.63;5.15;;;;;;;;;;5083831;28;20032;-76
2022/04/30 08:27:34;;;;;;;7.97;5.47;;;;;;;;;;5068257;28;20024;-75
2022/04/30 08:30:00;;;;;;;15.15;6.10;;;;;;;;;;5085980;28;20093;-75
2022/04/30 08:32:26;;;;;;;12.52;5.85;;;;;;;;;;5071592;28;20487;-75
2022/04/30 08:34:53;;;;;;;7.65;5.35;;;;;;;;;;5073214;28;20039;-75
2022/04/30 08:37:19;;;;;;;6.60;5.10;;;;;;;;;;5092224;28;20032;-75
2022/04/30 08:39:46;;;;;;;8.98;5.53;;;;;;;;;;5093734;28;20040;-75
2022/04/30 08:42:13;;;;;;;10.38;5.72;;;;;;;;;;5090808;28;20064;-75
2022/04/30 08:44:40;;;;;;;11.73;5.85;;;;;;;;;;5073190;28;20559;-74
2022/04/30 08:47:07;;;;;;;9.00;6.20;;;;;;;;;;5075377;28;20357;-75
2022/04/30 08:49:33;;;;;;;13.35;5.40;;;;;;;;;;5092429;28;20036;-75
2022/04/30 08:51:59;;;;;;;8.25;5.93;;;;;;;;;;5091949;28;20331;-74
2022/04/30 08:54:25;;;;;;;11.30;6.30;;;;;;;;;;5091031;28;20032;-75
2022/04/30 08:56:52;;;;;;;9.32;6.13;;;;;;;;;;5091583;28;20464;-75
2022/04/30 08:59:18;;;;;;;13.40;7.07;;;;;;;;;;5090778;28;20361;-75
2022/04/30 09:01:48;;;;;;;13.43;6.85;;;;;;;;;;5106364;27;20055;-75
2022/04/30 09:04:14;;;;;;;13.20;6.47;;;;;;;;;;5085136;28;20085;-75
2022/04/30 09:06:50;;;;;;;9.82;6.70;;;;;;;;;;5099120;27;20055;-75
2022/04/30 09:09:24;;;;;;;10.93;6.32;;;;;;;;;;5111068;27;20078;-75
2022/04/30 09:11:50;;;;;;;11.90;6.80;;;;;;;;;;5119728;27;20049;-74
2022/04/30 09:14:23;;;;;;;16.55;7.60;;;;;;;;;;5124901;27;20409;-75
2022/04/30 09:16:51;;;;;;;12.13;7.07;;;;;;;;;;5112943;27;20056;-74
2022/04/30 09:19:17;;;;;;;11.85;6.40;;;;;;;;;;5089544;28;20035;-75
2022/04/30 09:21:48;;;;;;;10.25;6.30;;;;;;;;;;5123652;27;20080;-75
2022/04/30 09:24:15;;;;;;;16.97;6.93;;;;;;;;;;5118784;27;20052;-75
2022/04/30 09:26:42;;;;;;;14.23;7.63;;;;;;;;;;5117590;27;20036;-75
2022/04/30 09:29:24;;;;;;;10.43;7.28;;;;;;;;;;5105476;28;20020;-75
2022/04/30 09:31:54;;;;;;;12.05;6.55;;;;;;;;;;5120996;27;20047;-75
2022/04/30 09:39:51;;;;;;;12.05;5.93;;;;;;;;;;5107538;28;20046;-75
2022/04/30 09:42:17;;;;;;;9.73;6.07;;;;;;;;;;5119450;27;20072;-75
2022/04/30 09:44:43;;;;;;;10.43;5.80;;;;;;;;;;5108244;27;20488;-75
2022/04/30 09:47:09;;;;;;;10.93;5.38;;;;;;;;;;5088170;27;20039;-74
2022/04/30 09:55:08;;;;;;;13.30;8.55;;;;;;;;;;5113358;27;20498;-74
2022/04/30 09:57:38;;;;;;;12.38;7.78;;;;;;;;;;5106520;27;20024;-75
2022/04/30 10:00:08;;;;;;;14.55;5.53;;;;;;;;;;5103919;28;20065;-75
2022/04/30 10:02:35;;;;;;;9.75;6.22;;;;;;;;;;5078478;28;20476;-74
2022/04/30 10:05:03;;;;;;;17.45;6.28;;;;;;;;;;5091038;28;20077;-75
2022/04/30 10:07:33;;;;;;;10.40;6.72;;;;;;;;;;5066892;28;20035;-74
2022/04/30 10:10:05;;;;;;;15.30;7.45;;;;;;;;;;5094042;28;20395;-74
2022/04/30 10:12:38;;;;;;;9.70;6.65;;;;;;;;;;5072345;28;20024;-74
2022/04/30 10:15:16;;;;;;;11.75;6.85;;;;;;;;;;5060973;28;20093;-74
2022/04/30 10:17:45;;;;;;;10.27;6.25;;;;;;;;;;5076073;28;20024;-75
2022/04/30 10:20:19;;;;;;;13.38;7.05;;;;;;;;;;5093432;28;20028;-74
2022/04/30 10:22:51;;;;;;;14.68;6.60;;;;;;;;;;5088261;28;20059;-74
2022/04/30 10:25:17;;;;;;;13.48;6.72;;;;;;;;;;5086832;28;20028;-74
2022/04/30 10:27:47;;;;;;;11.07;6.25;;;;;;;;;;5075631;28;20035;-74
2022/04/30 10:30:23;;;;;;;13.70;6.85;;;;;;;;;;5087902;28;20368;-74
2022/04/30 10:32:58;;;;;;;9.82;5.00;;;;;;;;;;5091694;28;20097;-74
2022/04/30 10:35:31;;;;;;;10.18;5.60;;;;;;;;;;5068714;28;20093;-75
2022/04/30 10:38:10;;;;;;;10.25;5.03;;;;;;;;;;5072329;28;20028;-75
2022/04/30 10:40:45;;;;;;;10.27;4.97;;;;;;;;;;5077628;28;20521;-74
2022/04/30 10:43:31;;;;;;;10.32;5.05;;;;;;;;;;5088150;28;20388;-74
2022/04/30 10:45:57;;;;;;;5.95;4.00;;;;;;;;;;5081718;28;20539;-74
2022/04/30 10:48:24;;;;;;;5.95;4.28;;;;;;;;;;5086320;28;20024;-74
2022/04/30 10:51:01;;;;;;;11.57;4.38;;;;;;;;;;5074528;28;20336;-74
2022/04/30 10:53:28;;;;;;;5.72;4.20;;;;;;;;;;5073511;28;20056;-74
2022/04/30 10:55:55;;;;;;;8.85;4.30;;;;;;;;;;5083651;28;20025;-75
2022/04/30 10:58:25;;;;;;;10.32;5.00;;;;;;;;;;5086166;28;20029;-74
2022/04/30 11:00:51;;;;;;;8.80;4.32;;;;;;;;;;5089303;27;20400;-74
2022/04/30 11:03:17;;;;;;;10.57;5.07;;;;;;;;;;5100414;28;20493;-73
2022/04/30 11:05:43;;;;;;;8.48;4.53;;;;;;;;;;5105504;28;20032;-75
2022/04/30 11:08:10;;;;;;;8.63;4.85;;;;;;;;;;5108193;28;20081;-74
2022/04/30 11:10:36;;;;;;;10.18;4.28;;;;;;;;;;5104040;28;20040;-75
2022/04/30 11:13:06;;;;;;;9.77;4.10;;;;;;;;;;5104286;27;20036;-75
2022/04/30 11:15:32;;;;;;;8.05;4.30;;;;;;;;;;5104144;27;20062;-74
2022/04/30 11:17:59;;;;;;;4.78;3.33;;;;;;;;;;5095852;27;20147;-75
2022/04/30 11:20:25;;;;;;;8.70;4.13;;;;;;;;;;5110798;28;20538;-75
2022/04/30 11:22:55;;;;;;;6.38;3.55;;;;;;;;;;5107964;28;20490;-75
2022/04/30 11:25:21;;;;;;;6.90;3.60;;;;;;;;;;5104458;28;20426;-74
2022/04/30 11:27:47;;;;;;;7.50;4.13;;;;;;;;;;5112643;28;20111;-74
2022/04/30 11:30:13;;;;;;;6.25;3.13;;;;;;;;;;5106317;28;20081;-74
2022/04/30 11:32:39;;;;;;;5.57;3.53;;;;;;;;;;5102553;28;20395;-76
2022/04/30 11:35:06;;;;;;;8.68;6.15;;;;;;;;;;5097474;28;20038;-75
2022/04/30 11:37:39;;;;;;;20.92;9.15;;;;;;;;;;5090259;28;20084;-75
2022/04/30 11:40:05;;;;;;;7.22;4.40;;;;;;;;;;5112398;27;20115;-75
2022/04/30 11:42:31;;;;;;;8.40;3.03;;;;;;;;;;5122821;27;20405;-76
2022/04/30 11:44:57;;;;;;;6.22;3.60;;;;;;;;;;5113273;28;20051;-77
2022/04/30 11:47:23;;;;;;;8.63;3.78;;;;;;;;;;5123914;27;20027;-76
2022/04/30 11:49:49;;;;;;;5.93;3.20;;;;;;;;;;5114010;27;20032;-77
2022/04/30 11:52:16;;;;;;;6.85;2.95;;;;;;;;;;5111270;28;20075;-77
2022/04/30 11:54:42;;;;;;;9.25;4.43;;;;;;;;;;5114678;28;20032;-77
2022/04/30 11:57:09;;;;;;;3.83;3.00;;;;;;;;;;5116841;28;20026;-77
2022/04/30 11:59:40;;;;;;;10.20;4.00;;;13.80;99.90;;;;;;5104836;28;20404;-75
2022/04/30 12:02:09;;;;;;;5.60;3.28;;;;;;;;;;5102841;28;20040;-79
2022/04/30 12:04:37;;;;;;;4.90;3.25;;;13.60;99.90;;;;;;5077367;28;20447;-79
2022/04/30 12:07:05;;;;;;;5.57;2.75;;;;;;;;;;5087478;28;20075;-79
2022/04/30 12:09:32;;;;;;;9.40;3.40;;;13.60;99.90;;;;;;5092431;28;20039;-79
2022/04/30 12:12:00;;;;;;;6.25;2.78;;;;;;;;;;5098150;28;20038;-79
2022/04/30 12:14:27;;;;;;;4.57;2.92;;;;;;;;;;5089559;28;20395;-79
2022/04/30 12:16:54;;;;;;;7.30;2.60;;;;;;;;;;5110534;28;20047;-79
2022/04/30 12:25:09;;;;;;;5.47;3.38;;;13.70;99.90;;;;;;5101917;28;20035;-79
2022/04/30 12:27:36;;;;;;;10.07;3.15;;;;;;;;;;5106382;28;20089;-79
2022/04/30 12:30:05;;;;;;;6.78;3.40;;;;;;;;;;5111785;28;20051;-80
2022/04/30 12:32:33;;;;;;;6.80;3.22;;;;;;;;;;5110118;28;20036;-78
2022/04/30 12:35:00;;;;;;;8.05;3.25;;;;;;;;;;5112043;28;20397;-79
2022/04/30 12:37:34;;;;;;;7.63;3.05;;;;;;;;;;5116374;28;20015;-79
2022/04/30 12:40:00;;;;;;;6.22;2.85;;;;;;;;;;5111309;28;20032;-79
2022/04/30 12:42:27;;;;;;;5.15;2.75;;;;;;;;;;5104273;28;20106;-78
2022/04/30 12:44:53;;;;;;;6.45;2.63;;;;;;;;;;5075651;28;20023;-79
2022/04/30 12:47:19;;;;;;;10.20;2.88;;;;;;;;;;5090514;28;20027;-79
2022/04/30 12:49:45;;;;;;;5.03;2.70;;;;;;;;;;5078119;28;20048;-79
2022/04/30 12:52:11;;;;;;;7.32;2.67;;;;;;;;;;5108194;28;20102;-80
2022/04/30 12:54:37;;;;;;;10.38;3.08;;;;;;;;;;5111414;28;20059;-79
2022/04/30 12:57:07;;;;;;;7.22;2.75;;;;;;;;;;5109135;28;20032;-80
2022/04/30 12:59:37;;;;;;;6.38;2.75;;;;;;;;;;5108533;28;20051;-80
2022/04/30 13:02:04;;;;;;;4.57;3.03;;;;;;;;;;5096386;28;20056;-78
2022/04/30 13:04:30;;;;;;;4.65;2.92;;;;;;;;;;5103792;28;20039;-80
2022/04/30 13:06:56;;;;;;;8.57;3.80;;;;;;;;;;5116398;28;20042;-80
2022/04/30 13:14:52;;;;;;;8.77;5.00;;;;;;;;;;5115437;28;20039;-80
2022/04/30 13:17:18;;;;;;;15.77;4.65;;;;;;;;;;5098306;28;20027;-80
2022/04/30 13:19:44;;;;;;;7.15;4.43;;;;;;;;;;5099314;28;20040;-80
2022/04/30 13:22:10;;;;;;;7.60;4.47;;;;;;;;;;5114938;28;20024;-80
2022/04/30 13:24:36;;;;;;;9.73;4.50;;;;;;;;;;5116096;28;20291;-80
2022/04/30 13:27:02;;;;;;;10.80;5.25;;;;;;;;;;5117135;28;20026;-80
2022/04/30 13:29:28;;;;;;;7.88;4.15;;;;;;;;;;5101246;28;20035;-79
2022/04/30 13:31:55;;;;;;;10.57;4.13;;;;;;;;;;5116314;28;20073;-79
2022/04/30 13:34:21;;;;;;;6.70;4.35;;;;;;;;;;5108839;28;20033;-80
2022/04/30 13:36:48;;;;;;;7.65;4.30;;;;;;;;;;5115106;28;20027;-80
2022/04/30 13:39:14;;;;;;;7.95;4.88;;;;;;;;;;5119788;28;20039;-80
2022/04/30 13:41:40;;;;;;;8.80;4.10;;;;;;;;;;5119327;28;20032;-79
2022/04/30 13:44:09;;;;;;;7.03;3.85;;;;;;;;;;5117837;28;20031;-80
2022/04/30 13:46:35;;;;;;;5.60;3.83;;;;;;;;;;5103211;27;20036;-80
2022/04/30 13:49:01;;;;;;;6.78;4.32;;;;;;;;;;5127992;27;20186;-81
2022/04/30 13:51:27;;;;;;;8.82;4.18;;;;;;;;;;5126072;27;20089;-80
2022/04/30 13:53:53;;;;;;;11.70;4.57;;;;;;;;;;5113930;27;20081;-79
2022/04/30 13:56:19;;;;;;;7.53;3.92;;;;;;;;;;5115460;27;20383;-79
2022/04/30 13:58:46;;;;;;;10.48;4.35;;;;;;;;;;5109710;27;20109;-80
2022/04/30 14:01:12;;;;;;;8.18;4.00;;;;;;;;;;5102962;28;20207;-79
2022/04/30 14:03:38;;;;;;;4.32;3.75;;;;;;;;;;5083948;28;20036;-81
2022/04/30 14:06:04;;;;;;;6.50;3.40;;;;;;;;;;5095062;28;20410;-80
2022/04/30 14:08:30;;;;;;;8.50;4.18;;;;;;;;;;5103989;28;20106;-80
2022/04/30 14:10:56;;;;;;;7.22;3.40;;;;;;;;;;5075445;28;20166;-81
2022/04/30 14:16:07;;;;;;;8.77;4.50;;;;;;;;;;5089722;28;20113;-80
2022/04/30 14:18:34;;;;;;;7.97;4.75;;;;;;;;;;5096636;28;20531;-79
2022/04/30 14:21:04;;;;;;;20.95;12.32;;;;;;;;;;5084701;28;20024;-78
2022/04/30 14:23:30;;;;;;;6.97;4.72;;;;;;;;;;5076858;28;20046;-79
2022/04/30 14:25:57;;;;;;;8.90;4.40;;;;;;;;;;5085461;28;20161;-78
2022/04/30 14:28:23;;;;;;;7.20;3.63;;;;;;;;;;5082247;28;20060;-79
2022/04/30 14:30:49;;;;;;;6.35;4.03;;;;;;;;;;5096081;28;20046;-80
2022/04/30 14:33:15;;;;;;;6.13;3.33;;;;;;;;;;5088117;28;20032;-80
2022/04/30 14:35:41;;;;;;;8.27;3.63;;;;;;;;;;5082442;28;20028;-80
2022/04/30 14:38:15;;;;;;;4.03;3.30;;;;;;;;;;5076790;28;20054;-81
2022/04/30 14:40:42;;;;;;;8.65;2.58;;;;;;;;;;5095401;28;20082;-80
2022/04/30 14:43:09;;;;;;;5.63;3.72;;;;;;;;;;5086640;28;20032;-81
2022/04/30 14:45:44;;;;;;;4.95;3.47;;;;;;;;;;5101510;28;20028;-80
2022/04/30 14:48:11;;;;;;;6.40;3.55;;;;;;;;;;5107081;28;20038;-81
2022/04/30 14:50:37;;;;;;;5.53;3.60;;;;;;;;;;5097063;28;20036;-82
2022/04/30 14:53:03;;;;;;;6.35;3.30;;;;;;;;;;5103215;28;20032;-79
2022/04/30 14:55:30;;;;;;;6.47;3.35;;;;;;;;;;5086670;28;20149;-79
2022/04/30 14:57:56;;;;;;;5.63;3.80;;;;;;;;;;5072354;28;20036;-78
2022/04/30 15:00:22;;;;;;;7.95;3.90;;;;;;;;;;5089767;28;20395;-79
2022/04/30 15:02:48;;;;;;;8.18;3.78;;;;;;;;;;5089934;28;20077;-79
2022/04/30 15:05:14;;;;;;;10.40;3.25;;;;;;;;;;5094801;28;20039;-80
2022/04/30 15:07:40;;;;;;;6.25;3.25;;;;;;;;;;5082354;28;20033;-79
2022/04/30 15:10:07;;;;;;;6.78;3.00;;;;;;;;;;5083606;28;20448;-79
2022/04/30 15:12:36;;;;;;;5.20;2.53;;;;;;;;;;5086608;28;20382;-78
2022/04/30 15:15:03;;;;;;;7.82;3.17;;;;;;;;;;5112873;28;20080;-78
2022/04/30 15:17:29;;;;;;;5.85;3.15;;;;;;;;;;5084687;28;20039;-78
2022/04/30 15:19:55;;;;;;;7.28;4.13;;;;;;;;;;5075183;28;20068;-78
2022/04/30 15:22:21;;;;;;;6.80;4.07;;;;;;;;;;5089617;28;20028;-78